Time;durP1;ratioP1;P1;durP2;ratioP2;P2;SDS_P1;SDS_P2;PMS_P1;PMS_P2;Temp;Humidity;BMP_temperature;BMP_pressure;BME280_temperature;BME280_humidity;BME280_pressure;Samples;Min_cycle;Max_cycle;Signal;HPM_P1;HPM_P2
2021/05/15 00:01:48;;;;;;;13.47;9.20;;;12.40;1.00;;;;;;5047698;28;20190;-49
2021/05/15 00:04:14;;;;;;;18.63;10.60;;;12.50;1.00;;;;;;5052302;28;20201;-48
2021/05/15 00:06:39;;;;;;;15.63;9.80;;;12.60;1.00;;;;;;5048647;28;20199;-49
2021/05/15 00:09:06;;;;;;;15.27;10.13;;;12.60;1.00;;;;;;5051291;28;20257;-49
2021/05/15 00:11:31;;;;;;;13.30;10.03;;;12.50;99.90;;;;;;5050869;28;20185;-49
2021/05/15 00:13:57;;;;;;;15.40;9.20;;;12.40;1.00;;;;;;5050804;28;20224;-48
2021/05/15 00:16:22;;;;;;;16.10;10.53;;;12.50;99.90;;;;;;5051732;28;20223;-48
2021/05/15 00:18:48;;;;;;;16.80;10.47;;;12.30;99.90;;;;;;5051390;28;20209;-49
2021/05/15 00:21:14;;;;;;;17.03;10.43;;;12.20;1.00;;;;;;5048477;28;20609;-48
2021/05/15 00:23:40;;;;;;;18.97;10.97;;;12.10;1.00;;;;;;5047520;28;20211;-49
2021/05/15 00:26:05;;;;;;;16.83;9.67;;;12.00;1.00;;;;;;5050666;28;20182;-49
2021/05/15 00:28:31;;;;;;;13.10;9.23;;;11.80;99.90;;;;;;5048519;28;20224;-49
2021/05/15 00:30:57;;;;;;;18.37;10.47;;;11.60;99.90;;;;;;5044826;28;20257;-49
2021/05/15 00:33:24;;;;;;;16.37;9.93;;;11.40;99.90;;;;;;5047673;28;20209;-49
2021/05/15 00:35:49;;;;;;;13.00;9.57;;;11.30;99.90;;;;;;5045922;28;20192;-49
2021/05/15 00:38:15;;;;;;;20.83;9.27;;;11.30;99.90;;;;;;5048723;28;20189;-49
2021/05/15 00:40:41;;;;;;;14.83;9.93;;;11.40;99.90;;;;;;5046601;28;20257;-49
2021/05/15 00:43:08;;;;;;;15.90;9.80;;;11.40;99.90;;;;;;5046313;28;20211;-49
2021/05/15 00:45:35;;;;;;;17.70;9.80;;;11.70;99.90;;;;;;5045977;28;20262;-49
2021/05/15 00:48:01;;;;;;;20.50;10.03;;;12.10;99.90;;;;;;5047948;28;20603;-49
2021/05/15 00:50:28;;;;;;;18.93;10.53;;;12.10;99.90;;;;;;5047420;28;20670;-49
2021/05/15 00:52:54;;;;;;;22.70;10.47;;;12.00;96.50;;;;;;5044464;28;20186;-49
2021/05/15 00:55:20;;;;;;;18.87;11.37;;;12.10;1.00;;;;;;5046160;28;20207;-49
2021/05/15 00:57:47;;;;;;;19.60;11.60;;;12.10;1.00;;;;;;5046487;28;20194;-49
2021/05/15 01:00:15;;;;;;;19.87;11.20;;;12.10;1.00;;;;;;5045481;28;20214;-49
2021/05/15 01:02:41;;;;;;;18.67;10.60;;;12.10;1.00;;;;;;5044681;28;20184;-49
2021/05/15 01:05:09;;;;;;;18.20;10.30;;;12.20;99.90;;;;;;5046451;28;20192;-49
2021/05/15 01:07:35;;;;;;;20.13;11.00;;;12.20;1.00;;;;;;5049131;28;20218;-49
2021/05/15 01:10:00;;;;;;;21.30;11.57;;;12.20;1.00;;;;;;5048068;28;20203;-49
2021/05/15 01:12:26;;;;;;;16.97;10.40;;;12.20;47.20;;;;;;5045789;28;20192;-50
2021/05/15 01:14:52;;;;;;;20.30;10.70;;;12.10;99.90;;;;;;5045770;28;20190;-49
2021/05/15 01:17:18;;;;;;;18.97;11.70;;;12.10;1.00;;;;;;5052930;28;20195;-49
2021/05/15 01:19:43;;;;;;;20.30;11.57;;;12.20;99.90;;;;;;5050320;28;20360;-49
2021/05/15 01:22:14;;;;;;;16.33;11.53;;;12.10;1.00;;;;;;5052202;28;20221;-48
2021/05/15 01:24:42;;;;;;;17.70;10.60;;;12.20;1.00;;;;;;5050686;28;20300;-49
2021/05/15 01:27:10;;;;;;;23.13;11.13;;;12.20;1.00;;;;;;5051922;28;20229;-49
2021/05/15 01:29:37;;;;;;;21.63;11.73;;;12.30;1.00;;;;;;5050220;28;20230;-49
2021/05/15 01:32:04;;;;;;;20.27;12.13;;;12.30;99.90;;;;;;5050970;28;20191;-49
2021/05/15 01:34:30;;;;;;;21.90;12.10;;;12.20;1.00;;;;;;5051121;28;20405;-49
2021/05/15 01:36:56;;;;;;;23.20;12.80;;;12.30;1.00;;;;;;5052682;28;20643;-49
2021/05/15 01:39:21;;;;;;;23.37;12.00;;;12.20;99.90;;;;;;5051810;28;20259;-49
2021/05/15 01:41:48;;;;;;;20.80;11.63;;;12.30;1.00;;;;;;5051409;28;20226;-49
2021/05/15 01:44:14;;;;;;;20.70;12.10;;;12.10;1.00;;;;;;5049833;28;20213;-49
2021/05/15 01:46:39;;;;;;;25.80;12.97;;;11.80;1.00;;;;;;5050485;28;20242;-49
2021/05/15 01:49:05;;;;;;;18.97;12.67;;;11.80;1.00;;;;;;5050395;28;20196;-49
2021/05/15 01:51:32;;;;;;;18.63;10.57;;;11.60;1.00;;;;;;5048105;28;20245;-49
2021/05/15 01:53:57;;;;;;;17.87;12.07;;;11.50;1.00;;;;;;5048987;28;20788;-49
2021/05/15 01:56:26;;;;;;;20.00;11.80;;;11.40;1.00;;;;;;5052809;28;20276;-49
2021/05/15 01:58:52;;;;;;;22.00;11.77;;;11.30;99.90;;;;;;5050067;28;20197;-49
2021/05/15 02:01:22;;;;;;;19.27;11.07;;;11.30;99.90;;;;;;5050823;28;20198;-49
2021/05/15 02:03:49;;;;;;;19.13;11.70;;;11.30;99.90;;;;;;5047116;28;20195;-49
2021/05/15 02:06:15;;;;;;;22.20;10.73;;;11.30;90.40;;;;;;5046955;28;20256;-49
2021/05/15 02:08:42;;;;;;;23.70;11.10;;;11.20;99.90;;;;;;5049974;28;20634;-49
2021/05/15 02:11:08;;;;;;;21.03;10.97;;;11.10;99.90;;;;;;5051559;28;20731;-49
2021/05/15 02:13:35;;;;;;;21.77;11.10;;;11.30;99.90;;;;;;5050518;28;20522;-49
2021/05/15 02:16:01;;;;;;;20.13;11.53;;;11.50;99.90;;;;;;5049605;28;20265;-49
2021/05/15 02:18:28;;;;;;;20.33;10.27;;;11.70;1.00;;;;;;5051502;28;20192;-49
2021/05/15 02:20:55;;;;;;;18.90;10.57;;;11.80;1.00;;;;;;5048624;28;20191;-49
2021/05/15 02:23:21;;;;;;;22.60;11.33;;;11.80;1.00;;;;;;5050797;28;20649;-49
2021/05/15 02:25:47;;;;;;;21.30;11.30;;;11.70;1.00;;;;;;5046489;28;20559;-49
2021/05/15 02:28:17;;;;;;;20.13;10.67;;;11.70;1.00;;;;;;5051411;28;20226;-49
2021/05/15 02:30:44;;;;;;;19.90;11.27;;;11.80;1.00;;;;;;5050127;28;20199;-49
2021/05/15 02:33:10;;;;;;;23.03;11.67;;;11.70;1.00;;;;;;5048619;28;20182;-49
2021/05/15 02:35:36;;;;;;;19.40;11.07;;;11.80;1.00;;;;;;5050846;28;20600;-49
2021/05/15 02:38:04;;;;;;;23.63;12.03;;;11.80;1.00;;;;;;5051818;28;20194;-49
2021/05/15 02:40:29;;;;;;;25.17;11.67;;;11.90;1.00;;;;;;5049259;28;20478;-50
2021/05/15 02:42:55;;;;;;;20.27;10.80;;;12.00;99.90;;;;;;5047002;28;20656;-49
2021/05/15 02:45:22;;;;;;;21.53;11.47;;;11.70;1.00;;;;;;5048510;28;20248;-49
2021/05/15 02:47:50;;;;;;;24.10;12.00;;;11.80;1.00;;;;;;5045394;28;20231;-49
2021/05/15 02:50:17;;;;;;;23.07;12.37;;;11.70;1.00;;;;;;5054969;28;20244;-50
2021/05/15 02:52:43;;;;;;;20.43;11.00;;;11.90;1.00;;;;;;5051685;28;20223;-49
2021/05/15 02:55:11;;;;;;;21.43;12.30;;;11.70;92.50;;;;;;5050235;28;20201;-49
2021/05/15 02:57:38;;;;;;;22.23;12.73;;;11.60;1.00;;;;;;5052645;28;20186;-49
2021/05/15 03:00:06;;;;;;;18.37;10.73;;;11.30;1.00;;;;;;5048254;28;20191;-49
2021/05/15 03:02:32;;;;;;;24.53;12.47;;;11.50;2.80;;;;;;5048087;28;20206;-49
2021/05/15 03:04:57;;;;;;;18.80;11.53;;;11.60;1.00;;;;;;5052844;28;20269;-49
2021/05/15 03:07:23;;;;;;;20.80;12.07;;;11.20;1.00;;;;;;5049804;28;20199;-49
2021/05/15 03:09:49;;;;;;;19.97;10.87;;;11.10;99.90;;;;;;5049519;28;20667;-49
2021/05/15 03:12:15;;;;;;;24.13;11.77;;;10.90;99.90;;;;;;5049447;28;20281;-49
2021/05/15 03:14:41;;;;;;;18.57;10.90;;;11.00;99.90;;;;;;5049573;28;20619;-49
2021/05/15 03:17:08;;;;;;;18.77;11.13;;;11.10;99.90;;;;;;5049175;28;20233;-49
2021/05/15 03:19:34;;;;;;;19.97;11.27;;;11.30;99.90;;;;;;5051792;28;20191;-49
2021/05/15 03:22:00;;;;;;;17.57;10.40;;;11.40;99.90;;;;;;5048806;28;20199;-49
2021/05/15 03:24:25;;;;;;;20.47;11.77;;;11.10;99.90;;;;;;5050982;28;20275;-49
2021/05/15 03:26:51;;;;;;;21.90;11.27;;;10.80;99.90;;;;;;5048392;28;20753;-49
2021/05/15 03:29:16;;;;;;;20.60;10.73;;;10.80;99.90;;;;;;5051621;28;20333;-49
2021/05/15 03:31:42;;;;;;;17.27;9.50;;;10.70;99.90;;;;;;5046073;28;20190;-49
2021/05/15 03:34:08;;;;;;;20.37;10.67;;;10.50;99.90;;;;;;5047866;28;21367;-49
2021/05/15 03:36:34;;;;;;;21.37;9.80;;;10.50;99.90;;;;;;5048732;28;20329;-49
2021/05/15 03:39:04;;;;;;;20.70;11.33;;;10.50;99.90;;;;;;5051348;28;20335;-49
2021/05/15 03:41:30;;;;;;;18.70;11.17;;;10.40;99.90;;;;;;5048173;28;21363;-48
2021/05/15 03:43:56;;;;;;;18.40;10.90;;;10.60;99.90;;;;;;5050363;28;20184;-49
2021/05/15 03:46:22;;;;;;;19.33;11.40;;;10.60;99.90;;;;;;5050665;28;20210;-49
2021/05/15 03:48:48;;;;;;;22.77;11.30;;;10.80;99.90;;;;;;5050216;28;20296;-49
2021/05/15 03:51:13;;;;;;;23.73;12.67;;;11.00;99.90;;;;;;5048110;28;20303;-49
2021/05/15 03:53:39;;;;;;;18.47;10.97;;;10.80;99.90;;;;;;5045500;28;20585;-49
2021/05/15 03:56:05;;;;;;;21.73;10.70;;;10.70;99.90;;;;;;5047902;28;20657;-50
2021/05/15 03:58:30;;;;;;;21.80;10.30;;;10.70;99.90;;;;;;5051007;28;20772;-48
2021/05/15 04:00:56;;;;;;;18.60;11.13;;;10.70;99.90;;;;;;5046922;28;20353;-48
2021/05/15 04:03:22;;;;;;;16.87;10.33;;;10.50;99.90;;;;;;5047898;28;20282;-49
2021/05/15 04:05:47;;;;;;;18.27;10.57;;;10.60;99.90;;;;;;5049905;28;20183;-49
2021/05/15 04:08:13;;;;;;;22.83;11.77;;;10.70;99.90;;;;;;5050574;28;20199;-48
2021/05/15 04:10:39;;;;;;;19.73;11.67;;;10.80;99.90;;;;;;5048906;28;20550;-49
2021/05/15 04:13:56;;;;;;;18.67;10.43;;;10.90;99.90;;;;;;5046450;28;20226;-49
2021/05/15 04:16:01;;;;;;;19.50;10.10;;;10.80;99.90;;;;;;5037186;28;20195;-49
2021/05/15 04:18:28;;;;;;;15.00;10.33;;;10.90;99.90;;;;;;5047030;28;20210;-49
2021/05/15 04:20:55;;;;;;;20.23;10.80;;;10.80;99.90;;;;;;5048584;28;20262;-49
2021/05/15 04:23:21;;;;;;;22.60;12.10;;;10.90;99.90;;;;;;5046136;28;20340;-49
2021/05/15 04:25:47;;;;;;;17.70;10.90;;;10.90;99.90;;;;;;5048391;28;20203;-49
2021/05/15 04:28:14;;;;;;;19.73;11.33;;;10.90;99.90;;;;;;5048992;28;20207;-48
2021/05/15 04:30:40;;;;;;;16.50;10.53;;;10.90;99.90;;;;;;5045213;28;20199;-49
2021/05/15 04:33:05;;;;;;;22.67;10.43;;;10.80;99.90;;;;;;5048554;28;20274;-49
2021/05/15 04:35:34;;;;;;;21.17;11.73;;;11.00;99.90;;;;;;5045582;28;20214;-49
2021/05/15 04:38:03;;;;;;;21.27;12.20;;;11.10;99.90;;;;;;5049515;28;20196;-49
2021/05/15 04:40:29;;;;;;;22.00;11.60;;;10.90;99.90;;;;;;5048312;28;20567;-49
2021/05/15 04:42:56;;;;;;;20.90;11.27;;;10.90;99.90;;;;;;5047708;28;20608;-49
2021/05/15 04:45:21;;;;;;;19.47;10.57;;;10.80;99.90;;;;;;5046160;28;20628;-48
2021/05/15 04:47:47;;;;;;;17.23;11.10;;;10.70;99.90;;;;;;5048772;28;20519;-48
2021/05/15 04:50:13;;;;;;;18.10;10.93;;;10.70;99.90;;;;;;5048689;28;20235;-47
2021/05/15 04:52:39;;;;;;;19.00;10.30;;;10.90;99.90;;;;;;5051188;28;20227;-49
2021/05/15 04:55:06;;;;;;;21.80;10.13;;;10.80;99.90;;;;;;5052508;28;20276;-47
2021/05/15 04:57:32;;;;;;;16.37;9.60;;;10.70;99.90;;;;;;5051712;28;22692;-48
2021/05/15 04:59:58;;;;;;;19.03;10.80;;;10.60;99.90;;;;;;5051670;28;20282;-48
2021/05/15 05:02:23;;;;;;;18.73;11.27;;;10.90;99.90;;;;;;5051569;28;20192;-48
2021/05/15 05:04:49;;;;;;;21.37;11.47;;;10.90;99.90;;;;;;5045609;28;20278;-47
2021/05/15 05:07:15;;;;;;;18.60;10.53;;;10.90;99.90;;;;;;5051751;28;20573;-48
2021/05/15 05:09:41;;;;;;;19.53;11.13;;;10.80;99.90;;;;;;5050106;28;20204;-48
2021/05/15 05:12:08;;;;;;;20.43;10.83;;;10.70;99.90;;;;;;5051427;28;21013;-48
2021/05/15 05:14:34;;;;;;;19.37;10.43;;;10.70;99.90;;;;;;5053344;28;20608;-47
2021/05/15 05:16:59;;;;;;;23.00;11.30;;;10.70;99.90;;;;;;5049736;28;20201;-48
2021/05/15 05:19:25;;;;;;;20.00;10.73;;;10.70;99.90;;;;;;5050525;28;20208;-47
2021/05/15 05:21:52;;;;;;;19.03;11.60;;;10.70;99.90;;;;;;5048849;28;20197;-48
2021/05/15 05:24:19;;;;;;;24.47;11.90;;;10.80;99.90;;;;;;5049817;28;20713;-49
2021/05/15 05:26:44;;;;;;;20.30;12.30;;;10.70;99.90;;;;;;5051949;28;20245;-50
2021/05/15 05:29:11;;;;;;;22.80;12.13;;;10.60;99.90;;;;;;5051072;28;20574;-48
2021/05/15 05:31:38;;;;;;;24.87;12.20;;;10.60;99.90;;;;;;5052276;28;20198;-48
2021/05/15 05:34:05;;;;;;;21.50;12.13;;;10.70;99.90;;;;;;5051035;28;20307;-50
2021/05/15 05:36:32;;;;;;;17.83;10.87;;;10.60;99.90;;;;;;5051457;28;20192;-48
2021/05/15 05:38:58;;;;;;;24.37;11.63;;;10.80;99.90;;;;;;5050772;28;20597;-47
2021/05/15 05:41:24;;;;;;;22.17;12.00;;;10.80;99.90;;;;;;5050150;28;20202;-47
2021/05/15 05:43:54;;;;;;;19.70;12.07;;;10.80;99.90;;;;;;5048288;28;20211;-48
2021/05/15 05:46:20;;;;;;;20.47;11.23;;;10.90;99.90;;;;;;5046620;28;20191;-47
2021/05/15 05:48:46;;;;;;;19.43;10.80;;;10.90;99.90;;;;;;5055279;28;20210;-48
2021/05/15 05:51:12;;;;;;;22.90;11.50;;;11.10;99.90;;;;;;5051289;28;20227;-49
2021/05/15 05:53:38;;;;;;;25.17;11.83;;;11.10;99.90;;;;;;5052976;28;20264;-49
2021/05/15 05:56:04;;;;;;;27.20;12.47;;;11.20;99.90;;;;;;5049251;28;20275;-49
2021/05/15 05:58:30;;;;;;;23.10;12.10;;;11.00;99.90;;;;;;5050639;28;20215;-49
2021/05/15 06:00:56;;;;;;;21.97;11.90;;;11.00;99.90;;;;;;5042091;28;20201;-49
2021/05/15 06:03:21;;;;;;;25.10;12.33;;;11.00;99.90;;;;;;5050651;28;20217;-49
2021/05/15 06:05:48;;;;;;;24.73;12.30;;;10.90;99.90;;;;;;5052896;28;20198;-50
2021/05/15 06:08:14;;;;;;;20.73;12.23;;;10.90;99.90;;;;;;5050056;28;20208;-49
2021/05/15 06:10:40;;;;;;;22.37;11.67;;;11.00;99.90;;;;;;5053304;28;20193;-49
2021/05/15 06:13:07;;;;;;;20.90;12.43;;;11.20;99.90;;;;;;5052075;28;20269;-49
2021/05/15 06:15:33;;;;;;;22.17;12.00;;;11.30;99.90;;;;;;5049244;28;20237;-49
2021/05/15 06:17:59;;;;;;;23.43;11.77;;;11.50;99.90;;;;;;5047744;28;20212;-49
2021/05/15 06:20:25;;;;;;;21.70;12.53;;;11.40;99.90;;;;;;5050998;28;20191;-49
2021/05/15 06:22:51;;;;;;;22.57;12.57;;;11.70;99.90;;;;;;5048869;28;20311;-49
2021/05/15 06:25:16;;;;;;;23.83;12.23;;;11.60;99.90;;;;;;5049282;28;20239;-50
2021/05/15 06:27:42;;;;;;;20.97;12.03;;;11.60;99.90;;;;;;5049929;28;20224;-49
2021/05/15 06:30:08;;;;;;;19.70;11.80;;;11.60;80.20;;;;;;5047245;28;20270;-49
2021/05/15 06:32:34;;;;;;;22.10;11.90;;;11.50;30.80;;;;;;5046900;28;20551;-49
2021/05/15 06:35:00;;;;;;;22.97;12.93;;;11.40;26.80;;;;;;5048443;28;20193;-49
2021/05/15 06:37:25;;;;;;;24.20;13.63;;;11.40;83.20;;;;;;5049996;28;20503;-49
2021/05/15 06:39:51;;;;;;;26.57;13.10;;;11.20;34.40;;;;;;5049330;28;20203;-49
2021/05/15 06:42:17;;;;;;;26.10;14.00;;;11.20;99.90;;;;;;5048942;28;20213;-49
2021/05/15 06:44:42;;;;;;;22.63;13.13;;;11.50;99.90;;;;;;5049372;28;20646;-49
2021/05/15 06:47:08;;;;;;;17.03;11.00;;;11.40;68.30;;;;;;5051040;28;20203;-49
2021/05/15 06:49:34;;;;;;;25.80;12.33;;;11.30;32.90;;;;;;5051340;28;20240;-49
2021/05/15 06:51:59;;;;;;;19.87;12.57;;;11.60;2.60;;;;;;5048366;28;20330;-49
2021/05/15 06:54:25;;;;;;;22.40;12.00;;;11.50;1.00;;;;;;5049048;28;20189;-49
2021/05/15 06:56:51;;;;;;;22.33;12.63;;;11.40;1.00;;;;;;5051029;28;20195;-49
2021/05/15 06:59:17;;;;;;;27.20;12.57;;;11.70;1.00;;;;;;5051750;28;20225;-49
2021/05/15 07:01:44;;;;;;;19.67;12.97;;;11.70;1.00;;;;;;5049464;28;20193;-49
2021/05/15 07:04:10;;;;;;;23.53;13.20;;;11.70;99.90;;;;;;5047472;28;20209;-49
2021/05/15 07:06:35;;;;;;;21.03;12.07;;;11.60;1.00;;;;;;5051847;28;20258;-49
2021/05/15 07:09:02;;;;;;;19.40;12.97;;;11.80;1.00;;;;;;5048669;28;20317;-49
2021/05/15 07:11:27;;;;;;;24.07;13.53;;;11.80;99.90;;;;;;5048871;28;20243;-49
2021/05/15 07:13:53;;;;;;;21.43;13.13;;;12.00;99.90;;;;;;5048840;28;21024;-49
2021/05/15 07:16:19;;;;;;;23.53;13.93;;;12.40;1.00;;;;;;5046548;28;20611;-48
2021/05/15 07:18:44;;;;;;;24.53;13.60;;;12.70;1.00;;;;;;5049980;28;20238;-48
2021/05/15 07:21:10;;;;;;;22.17;12.60;;;12.90;1.00;;;;;;5049715;28;20194;-49
2021/05/15 07:23:36;;;;;;;20.73;12.03;;;13.10;1.00;;;;;;5049070;28;20198;-49
2021/05/15 07:26:01;;;;;;;22.47;13.37;;;13.20;99.90;;;;;;5050071;28;20189;-49
2021/05/15 07:28:29;;;;;;;20.83;13.10;;;13.40;1.00;;;;;;5048820;28;20223;-49
2021/05/15 07:30:55;;;;;;;20.03;13.03;;;13.30;1.00;;;;;;5048910;28;20205;-49
2021/05/15 07:33:21;;;;;;;22.17;13.77;;;13.40;1.00;;;;;;5049623;28;20187;-49
2021/05/15 07:35:46;;;;;;;22.20;14.17;;;13.60;72.10;;;;;;5048448;28;20199;-49
2021/05/15 07:38:12;;;;;;;23.17;13.97;;;13.90;99.90;;;;;;5049804;28;20286;-49
2021/05/15 07:40:38;;;;;;;22.47;14.50;;;13.50;1.00;;;;;;5048235;28;20231;-49
2021/05/15 07:43:04;;;;;;;21.17;13.80;;;13.40;99.90;;;;;;5048691;28;20196;-49
2021/05/15 07:45:31;;;;;;;24.83;15.13;;;13.40;1.00;;;;;;5049779;28;20209;-50
2021/05/15 07:47:57;;;;;;;21.67;14.27;;;13.20;1.00;;;;;;5052333;28;20202;-49
2021/05/15 07:50:23;;;;;;;19.10;14.00;;;12.80;99.90;;;;;;5052086;28;20238;-49
2021/05/15 07:52:49;;;;;;;24.33;15.60;;;12.70;99.90;;;;;;5052944;28;20241;-49
2021/05/15 07:55:15;;;;;;;24.57;16.10;;;12.60;99.90;;;;;;5046355;28;20541;-49
2021/05/15 07:57:41;;;;;;;20.73;13.70;;;12.70;2.10;;;;;;5043985;28;21003;-49
2021/05/15 08:00:07;;;;;;;21.43;15.20;;;12.70;1.00;;;;;;5046298;28;20223;-49
2021/05/15 08:02:34;;;;;;;22.20;15.17;;;12.60;99.90;;;;;;5048539;28;20655;-49
2021/05/15 08:05:00;;;;;;;20.67;15.27;;;12.50;1.00;;;;;;5052118;28;20314;-50
2021/05/15 08:07:25;;;;;;;20.37;14.03;;;12.70;99.90;;;;;;5053074;28;20302;-50
2021/05/15 08:09:51;;;;;;;22.37;14.70;;;12.80;99.90;;;;;;5049651;28;20718;-49
2021/05/15 08:12:17;;;;;;;25.07;16.57;;;12.60;99.90;;;;;;5048321;28;20190;-49
2021/05/15 08:14:42;;;;;;;25.10;16.17;;;12.60;99.90;;;;;;5046363;28;20282;-49
2021/05/15 08:17:08;;;;;;;21.80;14.53;;;12.50;1.00;;;;;;5048602;28;20230;-49
2021/05/15 08:19:34;;;;;;;24.17;15.33;;;12.50;1.00;;;;;;5045846;28;20538;-49
2021/05/15 08:22:00;;;;;;;22.60;15.50;;;12.60;1.00;;;;;;5048952;28;20248;-49
2021/05/15 08:24:26;;;;;;;22.13;15.33;;;12.60;1.00;;;;;;5045332;28;20219;-48
2021/05/15 08:26:52;;;;;;;20.73;15.40;;;12.60;1.00;;;;;;5049623;28;20229;-48
2021/05/15 08:29:20;;;;;;;20.43;14.23;;;13.00;99.90;;;;;;5044866;28;20579;-48
2021/05/15 08:31:46;;;;;;;21.37;14.07;;;13.50;1.00;;;;;;5041589;28;20496;-48
2021/05/15 08:34:11;;;;;;;22.80;15.30;;;13.50;99.90;;;;;;5048544;28;20206;-51
2021/05/15 08:36:37;;;;;;;28.23;15.83;;;13.60;1.00;;;;;;5048275;28;20199;-49
2021/05/15 08:39:05;;;;;;;24.13;14.27;;;13.70;1.00;;;;;;5046309;28;20213;-48
2021/05/15 08:41:31;;;;;;;19.83;12.00;;;13.40;99.90;;;;;;5047578;28;20194;-49
2021/05/15 08:44:01;;;;;;;16.07;11.50;;;13.10;99.90;;;;;;5045345;28;20533;-48
2021/05/15 08:46:28;;;;;;;18.17;12.57;;;13.70;99.90;;;;;;5050542;28;20230;-48
2021/05/15 08:48:58;;;;;;;18.77;13.30;;;14.30;1.00;;;;;;5045681;28;20327;-49
2021/05/15 08:51:25;;;;;;;18.97;13.10;;;14.20;1.00;;;;;;5048709;28;20261;-48
2021/05/15 08:53:51;;;;;;;19.23;12.47;;;14.30;1.00;;;;;;5050675;28;20223;-48
2021/05/15 08:56:17;;;;;;;20.40;13.67;;;14.00;1.00;;;;;;5052480;28;20283;-49
2021/05/15 08:58:43;;;;;;;17.93;12.20;;;14.00;1.00;;;;;;5049071;28;20226;-48
2021/05/15 09:01:13;;;;;;;18.30;12.60;;;13.70;1.00;;;;;;5048700;28;20199;-49
2021/05/15 09:03:39;;;;;;;17.57;11.77;;;13.60;1.00;;;;;;5048597;28;20651;-49
2021/05/15 09:06:06;;;;;;;21.37;12.90;;;13.80;1.00;;;;;;5049477;28;20665;-48
2021/05/15 09:08:33;;;;;;;17.57;11.60;;;13.70;1.00;;;;;;5055618;28;20234;-49
2021/05/15 09:10:59;;;;;;;19.67;12.17;;;13.50;26.40;;;;;;5052477;28;20660;-48
2021/05/15 09:13:28;;;;;;;19.77;11.67;;;13.60;99.90;;;;;;5051048;28;20315;-48
2021/05/15 09:16:05;;;;;;;19.93;12.70;;;13.60;99.90;;;;;;5050827;28;20252;-48
2021/05/15 09:18:40;;;;;;;19.50;12.30;;;13.60;99.90;;;;;;5053197;28;20195;-48
2021/05/15 09:21:23;;;;;;;19.20;12.53;;;13.70;99.90;;;;;;5052280;28;20225;-49
2021/05/15 09:23:51;;;;;;;22.80;13.20;;;13.90;1.00;;;;;;5051055;28;20261;-49
2021/05/15 09:26:27;;;;;;;20.40;13.13;;;13.90;99.90;;;;;;5047465;28;20198;-48
2021/05/15 09:28:56;;;;;;;24.10;12.93;;;13.70;99.90;;;;;;5050140;28;20295;-49
2021/05/15 09:31:29;;;;;;;24.07;14.23;;;14.10;99.90;;;;;;5032153;28;20314;-49
2021/05/15 09:34:14;;;;;;;22.13;13.60;;;14.30;9.30;;;;;;5049509;28;20238;-49
2021/05/15 09:36:46;;;;;;;20.13;12.93;;;14.80;1.00;;;;;;5053383;28;20208;-49
2021/05/15 09:39:21;;;;;;;20.53;12.20;;;14.80;1.00;;;;;;5055623;28;20223;-49
2021/05/15 09:41:58;;;;;;;22.43;13.30;;;14.90;1.00;;;;;;5048295;28;20276;-49
2021/05/15 09:44:33;;;;;;;21.47;13.30;;;14.50;1.00;;;;;;5050684;28;20408;-49
2021/05/15 09:47:00;;;;;;;20.70;12.43;;;14.40;1.00;;;;;;5051602;28;20245;-49
2021/05/15 09:49:30;;;;;;;23.07;13.47;;;13.90;1.00;;;;;;5052336;28;20560;-49
2021/05/15 09:52:08;;;;;;;20.43;12.27;;;13.80;99.90;;;;;;5051029;28;20573;-49
2021/05/15 09:54:44;;;;;;;20.43;12.83;;;14.00;1.00;;;;;;5050042;28;20260;-49
2021/05/15 09:57:18;;;;;;;26.87;14.03;;;14.10;1.00;;;;;;5051505;28;20199;-50
2021/05/15 09:59:47;;;;;;;24.67;13.40;;;14.00;1.00;;;;;;5052326;28;20207;-50
2021/05/15 10:02:16;;;;;;;24.17;12.63;;;14.20;1.00;;;;;;5051393;28;20238;-49
2021/05/15 10:04:45;;;;;;;20.80;12.27;;;13.90;99.90;;;;;;5051100;28;20258;-49
2021/05/15 10:07:16;;;;;;;21.03;11.87;;;13.70;99.90;;;;;;5053249;28;20211;-49
2021/05/15 10:09:43;;;;;;;20.70;12.87;;;13.70;1.00;;;;;;5051446;28;20306;-49
2021/05/15 10:12:10;;;;;;;29.07;12.90;;;13.70;1.00;;;;;;5044785;28;20219;-49
2021/05/15 10:14:37;;;;;;;18.30;12.63;;;14.00;1.00;;;;;;5051247;28;20204;-49
2021/05/15 10:17:04;;;;;;;16.00;10.40;;;14.10;99.90;;;;;;5048164;28;20196;-49
2021/05/15 10:19:32;;;;;;;20.17;12.87;;;14.20;1.00;;;;;;5049341;28;21688;-49
2021/05/15 10:22:00;;;;;;;24.20;12.53;;;14.40;1.00;;;;;;5050257;28;20215;-49
2021/05/15 10:24:28;;;;;;;21.70;13.03;;;14.30;99.90;;;;;;5050904;28;20616;-49
2021/05/15 10:27:11;;;;;;;19.57;12.87;;;14.30;1.00;;;;;;5056174;28;20281;-49
2021/05/15 10:29:38;;;;;;;19.60;12.23;;;14.40;1.00;;;;;;5052941;28;20211;-49
2021/05/15 10:32:14;;;;;;;18.27;11.23;;;14.80;1.00;;;;;;5047816;28;20208;-49
2021/05/15 10:34:46;;;;;;;19.33;11.67;;;14.60;1.00;;;;;;5054395;28;20769;-49
2021/05/15 10:37:20;;;;;;;17.77;10.90;;;14.50;1.00;;;;;;5057519;28;20599;-48
2021/05/15 10:39:48;;;;;;;10.30;6.43;;;14.20;97.10;;;;;;5052170;28;20223;-49
2021/05/15 10:42:32;;;;;;;8.67;3.60;;;13.50;99.90;;;;;;5052480;28;20260;-49
2021/05/15 10:45:01;;;;;;;4.00;2.90;;;12.40;1.00;;;;;;5050012;28;20203;-49
2021/05/15 10:47:28;;;;;;;4.20;2.33;;;11.80;99.90;;;;;;5056288;28;20208;-49
2021/05/15 10:50:20;;;;;;;2.60;1.67;;;11.60;1.00;;;;;;5055695;28;20249;-48
2021/05/15 10:52:49;;;;;;;3.83;1.90;;;11.60;99.90;;;;;;5052184;28;20239;-47
2021/05/15 10:55:35;;;;;;;3.87;1.87;;;11.80;1.00;;;;;;5056801;28;20294;-49
2021/05/15 10:58:13;;;;;;;3.57;1.83;;;12.00;1.00;;;;;;5052309;28;20695;-48
2021/05/15 11:00:41;;;;;;;2.40;1.33;;;12.30;99.90;;;;;;5052771;28;20729;-48
2021/05/15 11:03:08;;;;;;;1.77;1.30;;;12.20;34.60;;;;;;5053553;28;20748;-48
2021/05/15 11:05:42;;;;;;;1.50;1.03;;;12.20;99.90;;;;;;5055687;28;20287;-48
2021/05/15 11:08:25;;;;;;;1.57;1.00;;;12.20;1.00;;;;;;5054957;28;20324;-49
2021/05/15 11:10:52;;;;;;;3.60;1.40;;;12.50;99.90;;;;;;5049648;28;20218;-48
2021/05/15 11:13:19;;;;;;;4.73;1.20;;;12.90;99.90;;;;;;5051934;28;20211;-49
2021/05/15 11:15:46;;;;;;;1.63;1.10;;;13.40;1.00;;;;;;5054497;28;20262;-49
2021/05/15 11:18:27;;;;;;;3.10;1.40;;;13.20;1.00;;;;;;5053367;28;20723;-50
2021/05/15 11:21:02;;;;;;;3.83;1.43;;;13.60;1.00;;;;;;5054342;28;20220;-49
2021/05/15 11:23:29;;;;;;;2.20;1.80;;;13.90;1.00;;;;;;5053391;28;20278;-50
2021/05/15 11:26:04;;;;;;;4.13;2.00;;;14.50;1.00;;;;;;5053743;28;20687;-50
2021/05/15 11:28:31;;;;;;;2.17;1.70;;;14.10;99.90;;;;;;5053506;28;20709;-50
2021/05/15 11:30:59;;;;;;;3.33;2.57;;;14.30;99.90;;;;;;5055010;28;20216;-49
2021/05/15 11:33:27;;;;;;;4.37;3.47;;;14.20;99.90;;;;;;5048539;28;20203;-49
2021/05/15 11:35:56;;;;;;;4.30;2.80;;;14.20;1.00;;;;;;5054792;28;20276;-50
2021/05/15 11:38:25;;;;;;;6.70;3.30;;;14.20;98.40;;;;;;5054382;28;20266;-49
2021/05/15 11:40:53;;;;;;;3.47;3.10;;;14.50;1.00;;;;;;5052618;28;20642;-49
2021/05/15 11:43:31;;;;;;;4.77;3.13;;;14.70;99.90;;;;;;5050010;28;20203;-49
2021/05/15 11:46:00;;;;;;;3.73;3.13;;;14.50;99.90;;;;;;5048381;28;20632;-49
2021/05/15 11:48:29;;;;;;;7.30;3.60;;;14.10;99.90;;;;;;5050151;28;20260;-49
2021/05/15 11:50:58;;;;;;;5.53;3.90;;;14.30;1.00;;;;;;5052190;28;20956;-50
2021/05/15 11:53:33;;;;;;;6.77;5.20;;;14.50;1.00;;;;;;5048826;28;20239;-49
2021/05/15 11:56:00;;;;;;;5.67;4.33;;;14.60;1.00;;;;;;5050182;28;20588;-49
2021/05/15 11:58:28;;;;;;;6.00;4.70;;;14.90;99.90;;;;;;5052217;28;20196;-50
2021/05/15 12:00:58;;;;;;;7.50;4.63;;;15.00;1.00;;;;;;5046158;28;20290;-50
2021/05/15 12:03:25;;;;;;;6.47;4.17;;;14.90;99.90;;;;;;5049621;28;20597;-49
2021/05/15 12:05:53;;;;;;;5.90;3.87;;;15.10;1.00;;;;;;5047182;28;20203;-50
2021/05/15 12:08:20;;;;;;;5.77;3.67;;;15.20;1.00;;;;;;5045120;28;20318;-49
2021/05/15 12:10:48;;;;;;;5.07;3.17;;;15.20;1.00;;;;;;5046976;28;20273;-50
2021/05/15 12:13:15;;;;;;;6.00;2.53;;;15.10;99.90;;;;;;5048582;28;20228;-49
2021/05/15 12:15:52;;;;;;;3.40;2.87;;;15.10;1.00;;;;;;5051083;28;20261;-49
2021/05/15 12:18:19;;;;;;;6.70;2.70;;;15.10;1.00;;;;;;5055978;28;20276;-49
2021/05/15 12:20:48;;;;;;;5.50;3.30;;;15.00;1.00;;;;;;5053152;28;20203;-49
2021/05/15 12:23:17;;;;;;;7.07;3.30;;;14.90;1.00;;;;;;5048532;28;20311;-49
2021/05/15 12:25:55;;;;;;;3.10;2.67;;;15.10;1.00;;;;;;5053464;28;20693;-50
2021/05/15 12:28:26;;;;;;;3.80;3.13;;;15.50;65.60;;;;;;5053012;28;20235;-49
2021/05/15 12:30:54;;;;;;;5.27;3.27;;;15.60;1.00;;;;;;5051018;28;20274;-49
2021/05/15 12:33:25;;;;;;;3.97;2.90;;;15.60;25.50;;;;;;5051384;28;20206;-50
2021/05/15 12:36:07;;;;;;;4.20;3.00;;;15.50;79.30;;;;;;5051997;28;20552;-50
2021/05/15 12:38:47;;;;;;;5.20;3.13;;;15.30;1.00;;;;;;5052447;28;20677;-49